sensor_id;sensor_type;location;lat;lon;timestamp;pressure;altitude;pressure_sealevel;temperature;humidity
59055;BME280;44845;51.444;7.460;2023-03-15T00:00:06;99232.63;;;4.91;59.45
59055;BME280;44845;51.444;7.460;2023-03-15T00:02:34;99225.75;;;4.96;60.41
59055;BME280;44845;51.444;7.460;2023-03-15T00:05:00;99223.16;;;5.02;59.54
59055;BME280;44845;51.444;7.460;2023-03-15T00:07:25;99234.41;;;5.04;59.64
59055;BME280;44845;51.444;7.460;2023-03-15T00:09:52;99244.81;;;5.04;60.39
59055;BME280;44845;51.444;7.460;2023-03-15T00:12:17;99230.97;;;5.05;61.13
59055;BME280;44845;51.444;7.460;2023-03-15T00:14:43;99228.31;;;4.94;62.86
59055;BME280;44845;51.444;7.460;2023-03-15T00:17:08;99224.84;;;4.91;63.97
59055;BME280;44845;51.444;7.460;2023-03-15T00:19:33;99245.59;;;4.86;65.10
59055;BME280;44845;51.444;7.460;2023-03-15T00:21:59;99254.19;;;4.74;64.51
59055;BME280;44845;51.444;7.460;2023-03-15T00:24:24;99274.06;;;4.72;65.75
59055;BME280;44845;51.444;7.460;2023-03-15T00:26:49;99269.66;;;4.57;63.99
59055;BME280;44845;51.444;7.460;2023-03-15T00:29:15;99280.81;;;4.42;62.62
59055;BME280;44845;51.444;7.460;2023-03-15T00:31:40;99285.25;;;4.60;64.07
59055;BME280;44845;51.444;7.460;2023-03-15T00:34:06;99276.66;;;4.64;64.89
59055;BME280;44845;51.444;7.460;2023-03-15T00:36:31;99277.50;;;4.65;66.15
59055;BME280;44845;51.444;7.460;2023-03-15T00:38:56;99275.69;;;4.57;65.68
59055;BME280;44845;51.444;7.460;2023-03-15T00:41:22;99276.63;;;4.59;65.74
59055;BME280;44845;51.444;7.460;2023-03-15T00:43:48;99279.25;;;4.66;66.56
59055;BME280;44845;51.444;7.460;2023-03-15T00:46:14;99282.69;;;4.63;67.55
59055;BME280;44845;51.444;7.460;2023-03-15T00:48:40;99287.88;;;4.61;67.70
59055;BME280;44845;51.444;7.460;2023-03-15T00:51:14;99286.19;;;4.70;68.12
59055;BME280;44845;51.444;7.460;2023-03-15T00:53:42;99287.97;;;4.74;68.53
59055;BME280;44845;51.444;7.460;2023-03-15T00:56:13;99284.50;;;4.73;68.98
59055;BME280;44845;51.444;7.460;2023-03-15T00:58:40;99285.41;;;4.79;68.76
59055;BME280;44845;51.444;7.460;2023-03-15T01:01:12;99288.00;;;4.79;68.27
59055;BME280;44845;51.444;7.460;2023-03-15T01:03:38;99281.03;;;4.73;68.31
59055;BME280;44845;51.444;7.460;2023-03-15T01:06:16;99286.25;;;4.79;68.58
59055;BME280;44845;51.444;7.460;2023-03-15T01:08:42;99287.13;;;4.77;68.26
59055;BME280;44845;51.444;7.460;2023-03-15T01:11:11;99292.28;;;4.73;68.47
59055;BME280;44845;51.444;7.460;2023-03-15T01:13:37;99284.50;;;4.73;68.46
59055;BME280;44845;51.444;7.460;2023-03-15T01:16:03;99291.34;;;4.64;68.06
59055;BME280;44845;51.444;7.460;2023-03-15T01:18:28;99290.53;;;4.72;68.55
59055;BME280;44845;51.444;7.460;2023-03-15T01:20:54;99295.78;;;4.79;68.92
59055;BME280;44845;51.444;7.460;2023-03-15T01:23:19;99304.44;;;4.79;69.58
59055;BME280;44845;51.444;7.460;2023-03-15T01:25:45;99307.84;;;4.69;69.35
59055;BME280;44845;51.444;7.460;2023-03-15T01:28:10;99315.59;;;4.67;69.75
59055;BME280;44845;51.444;7.460;2023-03-15T01:30:35;99306.13;;;4.72;70.08
59055;BME280;44845;51.444;7.460;2023-03-15T01:33:01;99303.56;;;4.74;70.55
59055;BME280;44845;51.444;7.460;2023-03-15T01:35:26;99313.91;;;4.72;70.48
59055;BME280;44845;51.444;7.460;2023-03-15T01:37:51;99311.28;;;4.66;70.75
59055;BME280;44845;51.444;7.460;2023-03-15T01:40:17;99315.63;;;4.72;70.91
59055;BME280;44845;51.444;7.460;2023-03-15T01:48:38;99319.09;;;4.66;71.90
59055;BME280;44845;51.444;7.460;2023-03-15T01:53:36;99316.50;;;4.71;71.99
59055;BME280;44845;51.444;7.460;2023-03-15T01:56:04;99313.88;;;4.66;72.20
59055;BME280;44845;51.444;7.460;2023-03-15T01:58:31;99306.09;;;4.68;72.13
59055;BME280;44845;51.444;7.460;2023-03-15T02:00:57;99311.25;;;4.65;72.03
59055;BME280;44845;51.444;7.460;2023-03-15T02:03:29;99314.72;;;4.62;72.17
59055;BME280;44845;51.444;7.460;2023-03-15T02:06:01;99306.03;;;4.60;71.87
59055;BME280;44845;51.444;7.460;2023-03-15T02:08:30;99319.84;;;4.57;72.01
59055;BME280;44845;51.444;7.460;2023-03-15T02:10:59;99317.25;;;4.57;72.21
59055;BME280;44845;51.444;7.460;2023-03-15T02:13:28;99331.97;;;4.54;72.03
59055;BME280;44845;51.444;7.460;2023-03-15T02:15:55;99327.56;;;4.45;72.57
59055;BME280;44845;51.444;7.460;2023-03-15T02:18:21;99332.78;;;4.46;72.69
59055;BME280;44845;51.444;7.460;2023-03-15T02:23:35;99341.38;;;4.41;72.73
59055;BME280;44845;51.444;7.460;2023-03-15T02:28:41;99337.88;;;4.38;72.16
59055;BME280;44845;51.444;7.460;2023-03-15T02:31:08;99329.25;;;4.39;72.38
59055;BME280;44845;51.444;7.460;2023-03-15T02:33:42;99341.31;;;4.34;72.25
59055;BME280;44845;51.444;7.460;2023-03-15T02:36:14;99338.75;;;4.39;72.59
59055;BME280;44845;51.444;7.460;2023-03-15T02:38:41;99344.78;;;4.36;72.62
59055;BME280;44845;51.444;7.460;2023-03-15T02:41:06;99346.56;;;4.37;72.61
59055;BME280;44845;51.444;7.460;2023-03-15T02:43:32;99346.50;;;4.34;72.47
59055;BME280;44845;51.444;7.460;2023-03-15T02:45:59;99344.78;;;4.36;72.60
59055;BME280;44845;51.444;7.460;2023-03-15T02:48:27;99350.88;;;4.37;73.16
59055;BME280;44845;51.444;7.460;2023-03-15T02:50:52;99347.44;;;4.41;72.85
59055;BME280;44845;51.444;7.460;2023-03-15T02:53:18;99349.19;;;4.42;72.81
59055;BME280;44845;51.444;7.460;2023-03-15T02:55:43;99361.22;;;4.34;72.56
59055;BME280;44845;51.444;7.460;2023-03-15T02:58:08;99365.56;;;4.36;72.77
59055;BME280;44845;51.444;7.460;2023-03-15T03:00:34;99362.13;;;4.41;72.52
59055;BME280;44845;51.444;7.460;2023-03-15T03:02:59;99365.56;;;4.38;72.66
59055;BME280;44845;51.444;7.460;2023-03-15T03:05:24;99374.25;;;4.38;72.47
59055;BME280;44845;51.444;7.460;2023-03-15T03:07:50;99369.97;;;4.44;72.60
59055;BME280;44845;51.444;7.460;2023-03-15T03:10:17;99378.69;;;4.49;72.49
59055;BME280;44845;51.444;7.460;2023-03-15T03:12:43;99372.59;;;4.50;72.30
59055;BME280;44845;51.444;7.460;2023-03-15T03:15:10;99376.94;;;4.49;72.52
59055;BME280;44845;51.444;7.460;2023-03-15T03:17:35;99381.31;;;4.52;72.50
59055;BME280;44845;51.444;7.460;2023-03-15T03:20:10;99377.84;;;4.53;72.49
59055;BME280;44845;51.444;7.460;2023-03-15T03:22:37;99387.38;;;4.56;72.91
59055;BME280;44845;51.444;7.460;2023-03-15T03:25:03;99377.03;;;4.59;72.62
59055;BME280;44845;51.444;7.460;2023-03-15T03:27:29;99381.31;;;4.55;72.24
59055;BME280;44845;51.444;7.460;2023-03-15T03:29:54;99384.78;;;4.54;72.83
59055;BME280;44845;51.444;7.460;2023-03-15T03:32:20;99400.38;;;4.56;72.52
59055;BME280;44845;51.444;7.460;2023-03-15T03:34:45;99405.56;;;4.57;73.38
59055;BME280;44845;51.444;7.460;2023-03-15T03:37:16;99414.25;;;4.56;72.92
59055;BME280;44845;51.444;7.460;2023-03-15T03:39:42;99421.09;;;4.51;73.07
59055;BME280;44845;51.444;7.460;2023-03-15T03:42:08;99421.09;;;4.51;73.13
59055;BME280;44845;51.444;7.460;2023-03-15T03:44:33;99425.44;;;4.50;72.89
59055;BME280;44845;51.444;7.460;2023-03-15T03:46:58;99427.94;;;4.41;73.08
59055;BME280;44845;51.444;7.460;2023-03-15T03:49:24;99433.91;;;4.34;73.22
59055;BME280;44845;51.444;7.460;2023-03-15T03:51:49;99434.69;;;4.25;72.97
59055;BME280;44845;51.444;7.460;2023-03-15T03:54:14;99435.75;;;4.44;73.15
59055;BME280;44845;51.444;7.460;2023-03-15T03:56:40;99440.97;;;4.47;73.00
59055;BME280;44845;51.444;7.460;2023-03-15T03:59:05;99449.63;;;4.48;72.88
59055;BME280;44845;51.444;7.460;2023-03-15T04:01:30;99446.22;;;4.52;72.58
59055;BME280;44845;51.444;7.460;2023-03-15T04:03:56;99453.09;;;4.47;72.55
59055;BME280;44845;51.444;7.460;2023-03-15T04:06:21;99457.44;;;4.48;72.62
59055;BME280;44845;51.444;7.460;2023-03-15T04:08:47;99461.81;;;4.52;72.75
59055;BME280;44845;51.444;7.460;2023-03-15T04:11:12;99462.66;;;4.51;72.98
59055;BME280;44845;51.444;7.460;2023-03-15T04:13:42;99457.28;;;4.32;73.15
59055;BME280;44845;51.444;7.460;2023-03-15T04:16:08;99467.75;;;4.42;73.22
59055;BME280;44845;51.444;7.460;2023-03-15T04:18:34;99477.31;;;4.47;73.31
59055;BME280;44845;51.444;7.460;2023-03-15T04:20:59;99467.75;;;4.42;73.16
59055;BME280;44845;51.444;7.460;2023-03-15T04:23:24;99476.44;;;4.44;73.58
59055;BME280;44845;51.444;7.460;2023-03-15T04:25:51;99481.63;;;4.44;73.72
59055;BME280;44845;51.444;7.460;2023-03-15T04:28:17;99478.19;;;4.45;73.43
59055;BME280;44845;51.444;7.460;2023-03-15T04:30:44;99487.69;;;4.44;73.70
59055;BME280;44845;51.444;7.460;2023-03-15T04:33:10;99483.41;;;4.48;73.65
59055;BME280;44845;51.444;7.460;2023-03-15T04:35:36;99483.38;;;4.45;73.74
59055;BME280;44845;51.444;7.460;2023-03-15T04:38:04;99486.88;;;4.47;73.75
59055;BME280;44845;51.444;7.460;2023-03-15T04:40:30;99487.66;;;4.39;73.92
59055;BME280;44845;51.444;7.460;2023-03-15T04:43:00;99493.78;;;4.45;73.53
59055;BME280;44845;51.444;7.460;2023-03-15T04:45:26;99493.78;;;4.48;73.61
59055;BME280;44845;51.444;7.460;2023-03-15T04:47:53;99502.41;;;4.45;73.59
59055;BME280;44845;51.444;7.460;2023-03-15T04:50:20;99507.66;;;4.50;73.33
59055;BME280;44845;51.444;7.460;2023-03-15T04:52:46;99501.56;;;4.48;73.21
59055;BME280;44845;51.444;7.460;2023-03-15T04:55:12;99500.72;;;4.49;73.12
59055;BME280;44845;51.444;7.460;2023-03-15T04:57:37;99502.44;;;4.48;73.10
59055;BME280;44845;51.444;7.460;2023-03-15T05:00:04;99504.16;;;4.45;72.96
59055;BME280;44845;51.444;7.460;2023-03-15T05:02:33;99504.16;;;4.45;73.08
59055;BME280;44845;51.444;7.460;2023-03-15T05:05:00;99505.00;;;4.45;72.65
59055;BME280;44845;51.444;7.460;2023-03-15T05:07:25;99505.78;;;4.36;73.23
59055;BME280;44845;51.444;7.460;2023-03-15T05:09:51;99505.72;;;4.33;73.03
59055;BME280;44845;51.444;7.460;2023-03-15T05:12:17;99517.91;;;4.37;72.77
59055;BME280;44845;51.444;7.460;2023-03-15T05:14:43;99514.41;;;4.35;73.18
59055;BME280;44845;51.444;7.460;2023-03-15T05:17:08;99517.88;;;4.34;73.21
59055;BME280;44845;51.444;7.460;2023-03-15T05:19:33;99530.88;;;4.36;73.29
59055;BME280;44845;51.444;7.460;2023-03-15T05:22:02;99524.00;;;4.41;73.17
59055;BME280;44845;51.444;7.460;2023-03-15T05:24:29;99530.13;;;4.45;73.02
59055;BME280;44845;51.444;7.460;2023-03-15T05:26:54;99529.16;;;4.38;72.54
59055;BME280;44845;51.444;7.460;2023-03-15T05:29:20;99532.63;;;4.37;72.71
59055;BME280;44845;51.444;7.460;2023-03-15T05:31:46;99543.88;;;4.37;73.02
59055;BME280;44845;51.444;7.460;2023-03-15T05:34:12;99547.38;;;4.39;72.68
59055;BME280;44845;51.444;7.460;2023-03-15T05:36:37;99549.97;;;4.39;73.02
59055;BME280;44845;51.444;7.460;2023-03-15T05:39:03;99562.94;;;4.39;73.30
59055;BME280;44845;51.444;7.460;2023-03-15T05:41:28;99563.78;;;4.37;72.94
59055;BME280;44845;51.444;7.460;2023-03-15T05:43:54;99570.63;;;4.32;73.17
59055;BME280;44845;51.444;7.460;2023-03-15T05:46:19;99578.47;;;4.35;73.38
59055;BME280;44845;51.444;7.460;2023-03-15T05:48:47;99581.13;;;4.39;73.19
59055;BME280;44845;51.444;7.460;2023-03-15T05:51:12;99591.56;;;4.44;73.51
59055;BME280;44845;51.444;7.460;2023-03-15T05:53:38;99602.84;;;4.46;73.10
59055;BME280;44845;51.444;7.460;2023-03-15T05:56:03;99601.16;;;4.50;73.17
59055;BME280;44845;51.444;7.460;2023-03-15T05:58:28;99597.66;;;4.45;73.44
59055;BME280;44845;51.444;7.460;2023-03-15T06:00:54;99608.88;;;4.45;73.47
59055;BME280;44845;51.444;7.460;2023-03-15T06:03:19;99614.13;;;4.47;73.30
59055;BME280;44845;51.444;7.460;2023-03-15T06:05:45;99618.44;;;4.45;73.34
59055;BME280;44845;51.444;7.460;2023-03-15T06:08:10;99627.94;;;4.47;73.18
59055;BME280;44845;51.444;7.460;2023-03-15T06:10:35;99619.25;;;4.44;72.96
59055;BME280;44845;51.444;7.460;2023-03-15T06:13:01;99626.16;;;4.43;73.13
59055;BME280;44845;51.444;7.460;2023-03-15T06:15:27;99631.47;;;4.49;73.07
59055;BME280;44845;51.444;7.460;2023-03-15T06:17:52;99633.19;;;4.49;72.99
59055;BME280;44845;51.444;7.460;2023-03-15T06:20:18;99635.84;;;4.52;73.05
59055;BME280;44845;51.444;7.460;2023-03-15T06:22:43;99640.16;;;4.52;73.38
59055;BME280;44845;51.444;7.460;2023-03-15T06:25:09;99638.38;;;4.50;73.41
59055;BME280;44845;51.444;7.460;2023-03-15T06:27:35;99641.81;;;4.48;73.58
59055;BME280;44845;51.444;7.460;2023-03-15T06:30:01;99644.41;;;4.48;73.94
59055;BME280;44845;51.444;7.460;2023-03-15T06:32:26;99646.16;;;4.49;73.20
59055;BME280;44845;51.444;7.460;2023-03-15T06:34:52;99649.47;;;4.38;72.87
59055;BME280;44845;51.444;7.460;2023-03-15T06:37:17;99648.66;;;4.41;73.70
59055;BME280;44845;51.444;7.460;2023-03-15T06:39:42;99657.38;;;4.45;73.52
59055;BME280;44845;51.444;7.460;2023-03-15T06:42:09;99647.94;;;4.52;73.08
59055;BME280;44845;51.444;7.460;2023-03-15T06:44:37;99660.00;;;4.48;73.05
59055;BME280;44845;51.444;7.460;2023-03-15T06:47:02;99661.69;;;4.46;73.15
59055;BME280;44845;51.444;7.460;2023-03-15T06:49:28;99665.19;;;4.48;72.97
59055;BME280;44845;51.444;7.460;2023-03-15T06:51:54;99669.47;;;4.44;72.94
59055;BME280;44845;51.444;7.460;2023-03-15T06:54:19;99668.59;;;4.44;72.89
59055;BME280;44845;51.444;7.460;2023-03-15T06:56:44;99672.84;;;4.38;72.95
59055;BME280;44845;51.444;7.460;2023-03-15T06:59:10;99677.28;;;4.46;72.13
59055;BME280;44845;51.444;7.460;2023-03-15T07:01:35;99682.47;;;4.46;73.04
59055;BME280;44845;51.444;7.460;2023-03-15T07:04:01;99682.59;;;4.52;73.19
59055;BME280;44845;51.444;7.460;2023-03-15T07:06:26;99686.06;;;4.54;73.08
59055;BME280;44845;51.444;7.460;2023-03-15T07:08:52;99689.59;;;4.59;73.25
59055;BME280;44845;51.444;7.460;2023-03-15T07:11:18;99699.13;;;4.60;73.39
59055;BME280;44845;51.444;7.460;2023-03-15T07:13:43;99699.97;;;4.58;73.69
59055;BME280;44845;51.444;7.460;2023-03-15T07:16:09;99708.69;;;4.65;73.33
59055;BME280;44845;51.444;7.460;2023-03-15T07:18:34;99713.06;;;4.64;73.13
59055;BME280;44845;51.444;7.460;2023-03-15T07:21:01;99715.66;;;4.66;73.25
59055;BME280;44845;51.444;7.460;2023-03-15T07:23:27;99715.66;;;4.67;72.74
59055;BME280;44845;51.444;7.460;2023-03-15T07:25:53;99713.19;;;4.73;72.74
59055;BME280;44845;51.444;7.460;2023-03-15T07:28:19;99721.84;;;4.74;72.99
59055;BME280;44845;51.444;7.460;2023-03-15T07:31:02;99724.41;;;4.71;72.25
59055;BME280;44845;51.444;7.460;2023-03-15T07:33:29;99729.66;;;4.76;73.50
59055;BME280;44845;51.444;7.460;2023-03-15T07:35:55;99735.84;;;4.84;73.17
59055;BME280;44845;51.444;7.460;2023-03-15T07:38:26;99737.56;;;4.85;73.20
59055;BME280;44845;51.444;7.460;2023-03-15T07:40:55;99739.34;;;4.88;72.61
59055;BME280;44845;51.444;7.460;2023-03-15T07:43:21;99747.13;;;4.88;73.02
59055;BME280;44845;51.444;7.460;2023-03-15T07:45:46;99745.38;;;4.85;72.57
59055;BME280;44845;51.444;7.460;2023-03-15T07:48:12;99751.50;;;4.90;72.50
59055;BME280;44845;51.444;7.460;2023-03-15T07:50:38;99756.72;;;4.90;72.83
59055;BME280;44845;51.444;7.460;2023-03-15T07:53:04;99761.06;;;4.93;72.50
59055;BME280;44845;51.444;7.460;2023-03-15T07:55:31;99771.41;;;4.90;71.70
59055;BME280;44845;51.444;7.460;2023-03-15T07:57:56;99768.88;;;4.91;72.03
59055;BME280;44845;51.444;7.460;2023-03-15T08:00:22;99771.41;;;4.88;71.23
59055;BME280;44845;51.444;7.460;2023-03-15T08:02:47;99777.31;;;4.76;70.10
59055;BME280;44845;51.444;7.460;2023-03-15T08:05:13;99783.44;;;4.81;70.73
59055;BME280;44845;51.444;7.460;2023-03-15T08:07:39;99790.38;;;4.82;70.48
59055;BME280;44845;51.444;7.460;2023-03-15T08:10:05;99797.34;;;4.83;70.57
59055;BME280;44845;51.444;7.460;2023-03-15T08:12:31;99800.75;;;4.81;69.81
59055;BME280;44845;51.444;7.460;2023-03-15T08:14:57;99810.31;;;4.83;69.47
59055;BME280;44845;51.444;7.460;2023-03-15T08:17:22;99814.63;;;4.81;69.76
59055;BME280;44845;51.444;7.460;2023-03-15T08:19:48;99811.09;;;4.76;69.08
59055;BME280;44845;51.444;7.460;2023-03-15T08:22:13;99825.03;;;4.81;69.20
59055;BME280;44845;51.444;7.460;2023-03-15T08:24:39;99820.72;;;4.85;69.94
59055;BME280;44845;51.444;7.460;2023-03-15T08:27:04;99823.25;;;4.80;69.11
59055;BME280;44845;51.444;7.460;2023-03-15T08:29:30;99826.81;;;4.86;69.66
59055;BME280;44845;51.444;7.460;2023-03-15T08:31:56;99823.41;;;4.90;69.22
59055;BME280;44845;51.444;7.460;2023-03-15T08:34:21;99830.41;;;4.94;68.05
59055;BME280;44845;51.444;7.460;2023-03-15T08:36:47;99832.22;;;5.00;68.69
59055;BME280;44845;51.444;7.460;2023-03-15T08:39:12;99829.72;;;5.06;68.08
59055;BME280;44845;51.444;7.460;2023-03-15T08:41:38;99841.88;;;5.09;68.04
59055;BME280;44845;51.444;7.460;2023-03-15T08:44:03;99842.81;;;5.14;65.98
59055;BME280;44845;51.444;7.460;2023-03-15T08:46:29;99848.06;;;5.17;66.85
59055;BME280;44845;51.444;7.460;2023-03-15T08:48:54;99855.91;;;5.20;66.70
59055;BME280;44845;51.444;7.460;2023-03-15T08:51:20;99848.06;;;5.17;66.23
59055;BME280;44845;51.444;7.460;2023-03-15T08:53:46;99854.25;;;5.27;67.41
59055;BME280;44845;51.444;7.460;2023-03-15T08:56:11;99859.63;;;5.38;68.50
59055;BME280;44845;51.444;7.460;2023-03-15T08:58:37;99865.72;;;5.40;68.45
59055;BME280;44845;51.444;7.460;2023-03-15T09:01:02;99867.44;;;5.41;67.38
59055;BME280;44845;51.444;7.460;2023-03-15T09:03:29;99863.78;;;5.26;67.55
59055;BME280;44845;51.444;7.460;2023-03-15T09:05:57;99874.16;;;5.23;66.54
59055;BME280;44845;51.444;7.460;2023-03-15T09:08:23;99883.50;;;5.12;67.24
59055;BME280;44845;51.444;7.460;2023-03-15T09:10:53;99882.66;;;5.13;67.42
59055;BME280;44845;51.444;7.460;2023-03-15T09:13:19;99880.97;;;5.16;66.05
59055;BME280;44845;51.444;7.460;2023-03-15T09:15:44;99878.44;;;5.21;66.21
59055;BME280;44845;51.444;7.460;2023-03-15T09:18:10;99879.38;;;5.26;66.04
59055;BME280;44845;51.444;7.460;2023-03-15T09:20:36;99881.97;;;5.26;64.64
59055;BME280;44845;51.444;7.460;2023-03-15T09:23:03;99870.75;;;5.29;62.67
59055;BME280;44845;51.444;7.460;2023-03-15T09:25:29;99878.84;;;5.51;63.46
59055;BME280;44845;51.444;7.460;2023-03-15T09:27:54;99881.50;;;5.52;64.08
59055;BME280;44845;51.444;7.460;2023-03-15T09:30:20;99890.28;;;5.62;64.68
59055;BME280;44845;51.444;7.460;2023-03-15T09:32:45;99898.94;;;5.63;64.32
59055;BME280;44845;51.444;7.460;2023-03-15T09:35:17;99899.94;;;5.73;62.09
59055;BME280;44845;51.444;7.460;2023-03-15T09:37:43;99901.53;;;5.60;63.10
59055;BME280;44845;51.444;7.460;2023-03-15T09:48:20;99908.41;;;5.56;65.41
59055;BME280;44845;51.444;7.460;2023-03-15T09:50:53;99921.25;;;5.44;62.03
59055;BME280;44845;51.444;7.460;2023-03-15T09:53:27;99921.41;;;5.56;62.20
59055;BME280;44845;51.444;7.460;2023-03-15T09:55:56;99924.97;;;5.63;61.54
59055;BME280;44845;51.444;7.460;2023-03-15T09:58:24;99913.66;;;5.59;62.02
59055;BME280;44845;51.444;7.460;2023-03-15T10:00:56;99917.78;;;5.43;61.88
59055;BME280;44845;51.444;7.460;2023-03-15T10:03:50;99918.97;;;5.67;64.54
59055;BME280;44845;51.444;7.460;2023-03-15T10:06:25;99918.19;;;5.74;61.61
59055;BME280;44845;51.444;7.460;2023-03-15T10:08:55;99918.09;;;5.68;60.01
59055;BME280;44845;51.444;7.460;2023-03-15T10:11:34;99930.44;;;5.82;62.21
59055;BME280;44845;51.444;7.460;2023-03-15T10:14:35;99924.03;;;5.56;61.07
59055;BME280;44845;51.444;7.460;2023-03-15T10:17:12;99923.28;;;5.65;60.95
59055;BME280;44845;51.444;7.460;2023-03-15T10:19:57;99929.50;;;5.77;64.44
59055;BME280;44845;51.444;7.460;2023-03-15T10:22:47;99930.41;;;5.79;61.74
59055;BME280;44845;51.444;7.460;2023-03-15T10:25:18;99935.72;;;5.88;63.25
59055;BME280;44845;51.444;7.460;2023-03-15T10:27:51;99929.63;;;5.88;62.03
59055;BME280;44845;51.444;7.460;2023-03-15T10:32:51;99928.78;;;5.87;58.76
59055;BME280;44845;51.444;7.460;2023-03-15T10:35:19;99928.19;;;6.08;63.03
59055;BME280;44845;51.444;7.460;2023-03-15T10:37:45;99923.06;;;6.16;60.17
59055;BME280;44845;51.444;7.460;2023-03-15T10:40:12;99920.47;;;6.19;59.15
59055;BME280;44845;51.444;7.460;2023-03-15T10:42:42;99924.06;;;6.28;61.50
59055;BME280;44845;51.444;7.460;2023-03-15T10:45:24;99932.72;;;6.27;60.73
59055;BME280;44845;51.444;7.460;2023-03-15T10:47:50;99928.38;;;6.24;57.67
59055;BME280;44845;51.444;7.460;2023-03-15T10:50:30;99934.53;;;6.34;59.85
59055;BME280;44845;51.444;7.460;2023-03-15T10:53:01;99930.22;;;6.35;58.01
59055;BME280;44845;51.444;7.460;2023-03-15T10:55:35;99928.53;;;6.38;58.27
59055;BME280;44845;51.444;7.460;2023-03-15T10:58:24;99938.81;;;6.26;57.23
59055;BME280;44845;51.444;7.460;2023-03-15T11:01:03;99943.22;;;6.33;57.15
59055;BME280;44845;51.444;7.460;2023-03-15T11:03:35;99941.53;;;6.38;58.26
59055;BME280;44845;51.444;7.460;2023-03-15T11:06:06;99949.22;;;6.26;53.27
59055;BME280;44845;51.444;7.460;2023-03-15T11:08:42;99941.50;;;6.34;53.25
59055;BME280;44845;51.444;7.460;2023-03-15T11:11:08;99944.19;;;6.43;55.80
59055;BME280;44845;51.444;7.460;2023-03-15T11:13:36;99935.50;;;6.41;56.91
59055;BME280;44845;51.444;7.460;2023-03-15T11:18:35;99946.47;;;6.13;54.13
59055;BME280;44845;51.444;7.460;2023-03-15T11:21:04;99941.00;;;5.94;54.87
59055;BME280;44845;51.444;7.460;2023-03-15T11:23:35;99954.38;;;6.23;56.20
59055;BME280;44845;51.444;7.460;2023-03-15T11:26:02;99950.84;;;6.14;54.47
59055;BME280;44845;51.444;7.460;2023-03-15T11:28:30;99955.81;;;5.97;52.08
59055;BME280;44845;51.444;7.460;2023-03-15T11:30:57;99962.91;;;6.09;51.20
59055;BME280;44845;51.444;7.460;2023-03-15T11:33:32;99966.31;;;6.06;55.50
59055;BME280;44845;51.444;7.460;2023-03-15T11:36:03;99963.84;;;6.14;57.86
59055;BME280;44845;51.444;7.460;2023-03-15T11:38:40;99972.63;;;6.23;59.33
59055;BME280;44845;51.444;7.460;2023-03-15T11:41:26;99969.16;;;6.24;57.56
59055;BME280;44845;51.444;7.460;2023-03-15T11:46:32;99977.88;;;6.26;57.79
59055;BME280;44845;51.444;7.460;2023-03-15T11:49:00;99985.69;;;6.24;58.46
59055;BME280;44845;51.444;7.460;2023-03-15T11:51:31;99987.38;;;6.22;57.38
59055;BME280;44845;51.444;7.460;2023-03-15T11:56:47;99981.72;;;5.89;52.96
59055;BME280;44845;51.444;7.460;2023-03-15T11:59:29;99977.94;;;5.68;53.24
59055;BME280;44845;51.444;7.460;2023-03-15T12:06:59;99973.78;;;5.80;52.70
59055;BME280;44845;51.444;7.460;2023-03-15T12:12:04;99969.75;;;6.04;53.58
59055;BME280;44845;51.444;7.460;2023-03-15T12:14:32;99970.75;;;6.12;51.41
59055;BME280;44845;51.444;7.460;2023-03-15T12:19:56;99969.16;;;6.24;52.65
59055;BME280;44845;51.444;7.460;2023-03-15T12:22:27;99965.69;;;6.25;53.34
59055;BME280;44845;51.444;7.460;2023-03-15T12:24:58;99963.69;;;6.05;50.44
59055;BME280;44845;51.444;7.460;2023-03-15T12:27:28;99964.03;;;6.30;52.93
59055;BME280;44845;51.444;7.460;2023-03-15T12:29:59;99956.41;;;6.47;55.05
59055;BME280;44845;51.444;7.460;2023-03-15T12:32:26;99960.75;;;6.50;53.81
59055;BME280;44845;51.444;7.460;2023-03-15T12:34:58;99963.47;;;6.59;55.51
59055;BME280;44845;51.444;7.460;2023-03-15T12:37:43;99958.41;;;6.73;56.92
59055;BME280;44845;51.444;7.460;2023-03-15T12:53:11;99957.00;;;7.13;55.47
59055;BME280;44845;51.444;7.460;2023-03-15T12:55:39;99953.56;;;7.19;55.58
59055;BME280;44845;51.444;7.460;2023-03-15T12:58:11;99951.84;;;7.21;57.35
59055;BME280;44845;51.444;7.460;2023-03-15T13:00:39;99955.25;;;7.15;54.06
59055;BME280;44845;51.444;7.460;2023-03-15T13:03:19;99963.16;;;7.20;55.86
59055;BME280;44845;51.444;7.460;2023-03-15T13:12:08;99953.59;;;7.22;50.31
59055;BME280;44845;51.444;7.460;2023-03-15T13:14:41;99951.00;;;7.25;52.74
59055;BME280;44845;51.444;7.460;2023-03-15T13:17:27;99953.69;;;7.35;54.25
59055;BME280;44845;51.444;7.460;2023-03-15T13:22:54;99956.22;;;7.22;50.59
59055;BME280;44845;51.444;7.460;2023-03-15T13:28:15;99957.28;;;7.49;55.95
59055;BME280;44845;51.444;7.460;2023-03-15T13:30:46;99965.09;;;7.52;55.02
59055;BME280;44845;51.444;7.460;2023-03-15T13:33:22;99968.53;;;7.45;53.01
59055;BME280;44845;51.444;7.460;2023-03-15T13:36:10;99958.13;;;7.48;46.42
59055;BME280;44845;51.444;7.460;2023-03-15T13:41:04;99965.00;;;7.40;50.37
59055;BME280;44845;51.444;7.460;2023-03-15T13:43:35;99957.19;;;7.38;47.62
59055;BME280;44845;51.444;7.460;2023-03-15T13:46:01;99960.66;;;7.37;47.00
59055;BME280;44845;51.444;7.460;2023-03-15T13:48:32;99962.41;;;7.40;49.70
59055;BME280;44845;51.444;7.460;2023-03-15T13:51:25;99954.59;;;7.43;50.18
59055;BME280;44845;51.444;7.460;2023-03-15T13:54:03;99962.47;;;7.45;53.02
59055;BME280;44845;51.444;7.460;2023-03-15T13:56:35;99961.53;;;7.35;48.83
59055;BME280;44845;51.444;7.460;2023-03-15T13:59:03;99957.94;;;7.20;47.00
59055;BME280;44845;51.444;7.460;2023-03-15T14:01:31;99961.50;;;7.31;52.09
59055;BME280;44845;51.444;7.460;2023-03-15T14:04:04;99964.91;;;7.24;48.12
59055;BME280;44845;51.444;7.460;2023-03-15T14:06:31;99964.97;;;7.34;53.16
59055;BME280;44845;51.444;7.460;2023-03-15T14:09:07;99971.94;;;7.31;50.60
59055;BME280;44845;51.444;7.460;2023-03-15T14:11:35;99972.78;;;7.27;48.81
59055;BME280;44845;51.444;7.460;2023-03-15T14:14:22;99972.66;;;7.18;42.50
59055;BME280;44845;51.444;7.460;2023-03-15T14:16:49;99970.97;;;7.20;41.22
59055;BME280;44845;51.444;7.460;2023-03-15T14:21:49;99978.59;;;6.95;45.52
59055;BME280;44845;51.444;7.460;2023-03-15T14:24:21;99967.31;;;7.01;41.39
59055;BME280;44845;51.444;7.460;2023-03-15T14:26:56;99979.63;;;7.13;44.21